sensor_id;sensor_type;location;lat;lon;timestamp;P1;durP1;ratioP1;P2;durP2;ratioP2
7997;SDS011;4044;49.814;7.828;2023-06-14T00:00:14;7.10;;;5.37;;
7997;SDS011;4044;49.814;7.828;2023-06-14T00:02:40;6.43;;;5.30;;
7997;SDS011;4044;49.814;7.828;2023-06-14T00:05:06;5.90;;;5.40;;
7997;SDS011;4044;49.814;7.828;2023-06-14T00:07:39;5.17;;;4.77;;
7997;SDS011;4044;49.814;7.828;2023-06-14T00:10:09;7.33;;;5.30;;
7997;SDS011;4044;49.814;7.828;2023-06-14T00:12:35;5.57;;;4.90;;
7997;SDS011;4044;49.814;7.828;2023-06-14T00:15:01;5.23;;;4.83;;
7997;SDS011;4044;49.814;7.828;2023-06-14T00:17:27;6.03;;;5.27;;
7997;SDS011;4044;49.814;7.828;2023-06-14T00:19:56;5.87;;;5.13;;
7997;SDS011;4044;49.814;7.828;2023-06-14T00:22:22;5.83;;;5.23;;
7997;SDS011;4044;49.814;7.828;2023-06-14T00:24:51;5.47;;;5.07;;
7997;SDS011;4044;49.814;7.828;2023-06-14T00:27:17;6.00;;;5.40;;
7997;SDS011;4044;49.814;7.828;2023-06-14T00:29:42;5.37;;;4.97;;
7997;SDS011;4044;49.814;7.828;2023-06-14T00:32:08;5.73;;;5.20;;
7997;SDS011;4044;49.814;7.828;2023-06-14T00:34:34;7.57;;;5.53;;
7997;SDS011;4044;49.814;7.828;2023-06-14T00:36:59;9.13;;;4.93;;
7997;SDS011;4044;49.814;7.828;2023-06-14T00:39:25;5.87;;;5.37;;
7997;SDS011;4044;49.814;7.828;2023-06-14T00:41:50;6.37;;;5.20;;
7997;SDS011;4044;49.814;7.828;2023-06-14T00:44:16;5.67;;;5.17;;
7997;SDS011;4044;49.814;7.828;2023-06-14T00:46:42;5.50;;;5.00;;
7997;SDS011;4044;49.814;7.828;2023-06-14T00:49:10;5.53;;;4.90;;
7997;SDS011;4044;49.814;7.828;2023-06-14T00:51:37;6.10;;;5.60;;
7997;SDS011;4044;49.814;7.828;2023-06-14T00:54:03;5.77;;;5.30;;
7997;SDS011;4044;49.814;7.828;2023-06-14T00:56:28;5.37;;;4.90;;
7997;SDS011;4044;49.814;7.828;2023-06-14T00:58:55;5.10;;;4.70;;
7997;SDS011;4044;49.814;7.828;2023-06-14T01:01:21;5.70;;;5.20;;
7997;SDS011;4044;49.814;7.828;2023-06-14T01:03:47;6.27;;;5.63;;
7997;SDS011;4044;49.814;7.828;2023-06-14T01:06:36;6.10;;;5.53;;
7997;SDS011;4044;49.814;7.828;2023-06-14T01:09:29;6.17;;;5.67;;
7997;SDS011;4044;49.814;7.828;2023-06-14T01:14:36;6.07;;;5.57;;
7997;SDS011;4044;49.814;7.828;2023-06-14T01:17:03;5.97;;;5.37;;
7997;SDS011;4044;49.814;7.828;2023-06-14T01:19:30;7.40;;;5.67;;
7997;SDS011;4044;49.814;7.828;2023-06-14T01:21:59;7.93;;;5.80;;
7997;SDS011;4044;49.814;7.828;2023-06-14T01:24:26;5.87;;;5.40;;
7997;SDS011;4044;49.814;7.828;2023-06-14T01:26:53;5.80;;;5.20;;
7997;SDS011;4044;49.814;7.828;2023-06-14T01:29:22;7.97;;;5.93;;
7997;SDS011;4044;49.814;7.828;2023-06-14T01:31:49;5.93;;;5.53;;
7997;SDS011;4044;49.814;7.828;2023-06-14T01:34:15;6.43;;;5.83;;
7997;SDS011;4044;49.814;7.828;2023-06-14T01:36:42;6.77;;;5.80;;
7997;SDS011;4044;49.814;7.828;2023-06-14T01:39:10;6.77;;;5.90;;
7997;SDS011;4044;49.814;7.828;2023-06-14T01:41:38;6.30;;;5.73;;
7997;SDS011;4044;49.814;7.828;2023-06-14T01:44:05;6.13;;;5.63;;
7997;SDS011;4044;49.814;7.828;2023-06-14T01:46:31;5.90;;;5.43;;
7997;SDS011;4044;49.814;7.828;2023-06-14T01:48:57;6.77;;;5.50;;
7997;SDS011;4044;49.814;7.828;2023-06-14T01:51:23;6.30;;;5.80;;
7997;SDS011;4044;49.814;7.828;2023-06-14T01:53:48;6.43;;;5.80;;
7997;SDS011;4044;49.814;7.828;2023-06-14T01:56:14;5.97;;;5.47;;
7997;SDS011;4044;49.814;7.828;2023-06-14T01:58:39;7.70;;;6.00;;
7997;SDS011;4044;49.814;7.828;2023-06-14T02:01:05;6.50;;;5.73;;
7997;SDS011;4044;49.814;7.828;2023-06-14T02:03:32;7.47;;;5.70;;
7997;SDS011;4044;49.814;7.828;2023-06-14T02:05:57;6.90;;;6.30;;
7997;SDS011;4044;49.814;7.828;2023-06-14T02:08:23;6.13;;;5.53;;
7997;SDS011;4044;49.814;7.828;2023-06-14T02:10:49;6.70;;;5.93;;
7997;SDS011;4044;49.814;7.828;2023-06-14T02:13:14;6.40;;;5.90;;
7997;SDS011;4044;49.814;7.828;2023-06-14T02:15:40;6.37;;;5.77;;
7997;SDS011;4044;49.814;7.828;2023-06-14T02:18:09;6.27;;;5.67;;
7997;SDS011;4044;49.814;7.828;2023-06-14T02:20:34;6.00;;;5.40;;
7997;SDS011;4044;49.814;7.828;2023-06-14T02:23:00;6.40;;;5.90;;
7997;SDS011;4044;49.814;7.828;2023-06-14T02:25:26;6.13;;;5.53;;
7997;SDS011;4044;49.814;7.828;2023-06-14T02:27:55;6.60;;;5.90;;
7997;SDS011;4044;49.814;7.828;2023-06-14T02:30:20;8.83;;;5.90;;
7997;SDS011;4044;49.814;7.828;2023-06-14T02:32:46;6.23;;;5.73;;
7997;SDS011;4044;49.814;7.828;2023-06-14T02:35:13;6.50;;;6.00;;
7997;SDS011;4044;49.814;7.828;2023-06-14T02:37:39;6.17;;;5.60;;
7997;SDS011;4044;49.814;7.828;2023-06-14T02:40:05;7.03;;;6.07;;
7997;SDS011;4044;49.814;7.828;2023-06-14T02:42:31;5.70;;;5.30;;
7997;SDS011;4044;49.814;7.828;2023-06-14T02:44:56;10.70;;;6.00;;
7997;SDS011;4044;49.814;7.828;2023-06-14T02:47:22;6.83;;;5.87;;
7997;SDS011;4044;49.814;7.828;2023-06-14T02:49:47;6.23;;;5.73;;
7997;SDS011;4044;49.814;7.828;2023-06-14T02:52:13;6.37;;;5.87;;
7997;SDS011;4044;49.814;7.828;2023-06-14T02:54:39;6.37;;;5.87;;
7997;SDS011;4044;49.814;7.828;2023-06-14T02:57:05;6.73;;;6.20;;
7997;SDS011;4044;49.814;7.828;2023-06-14T02:59:32;6.40;;;5.80;;
7997;SDS011;4044;49.814;7.828;2023-06-14T03:01:58;6.90;;;6.40;;
7997;SDS011;4044;49.814;7.828;2023-06-14T03:04:24;6.60;;;6.00;;
7997;SDS011;4044;49.814;7.828;2023-06-14T03:06:50;6.93;;;6.23;;
7997;SDS011;4044;49.814;7.828;2023-06-14T03:09:16;6.90;;;6.33;;
7997;SDS011;4044;49.814;7.828;2023-06-14T03:11:42;7.00;;;6.30;;
7997;SDS011;4044;49.814;7.828;2023-06-14T03:14:08;6.70;;;6.20;;
7997;SDS011;4044;49.814;7.828;2023-06-14T03:16:33;7.03;;;6.43;;
7997;SDS011;4044;49.814;7.828;2023-06-14T03:18:59;7.30;;;6.70;;
7997;SDS011;4044;49.814;7.828;2023-06-14T03:21:25;6.03;;;5.53;;
7997;SDS011;4044;49.814;7.828;2023-06-14T03:23:51;6.80;;;6.20;;
7997;SDS011;4044;49.814;7.828;2023-06-14T03:26:17;7.03;;;6.43;;
7997;SDS011;4044;49.814;7.828;2023-06-14T03:28:43;6.87;;;6.30;;
7997;SDS011;4044;49.814;7.828;2023-06-14T03:31:13;6.50;;;5.87;;
7997;SDS011;4044;49.814;7.828;2023-06-14T03:33:40;7.33;;;6.53;;
7997;SDS011;4044;49.814;7.828;2023-06-14T03:36:05;9.83;;;6.50;;
7997;SDS011;4044;49.814;7.828;2023-06-14T03:38:31;7.83;;;6.43;;
7997;SDS011;4044;49.814;7.828;2023-06-14T03:40:57;7.40;;;6.70;;
7997;SDS011;4044;49.814;7.828;2023-06-14T03:43:22;6.97;;;6.37;;
7997;SDS011;4044;49.814;7.828;2023-06-14T03:45:48;7.30;;;6.70;;
7997;SDS011;4044;49.814;7.828;2023-06-14T03:48:14;7.37;;;6.67;;
7997;SDS011;4044;49.814;7.828;2023-06-14T03:50:40;7.57;;;6.87;;
7997;SDS011;4044;49.814;7.828;2023-06-14T03:53:08;7.53;;;6.93;;
7997;SDS011;4044;49.814;7.828;2023-06-14T03:55:33;7.33;;;6.80;;
7997;SDS011;4044;49.814;7.828;2023-06-14T03:57:59;7.10;;;6.47;;
7997;SDS011;4044;49.814;7.828;2023-06-14T04:00:25;7.40;;;6.43;;
7997;SDS011;4044;49.814;7.828;2023-06-14T04:02:51;7.13;;;6.50;;
7997;SDS011;4044;49.814;7.828;2023-06-14T04:05:17;8.07;;;6.23;;
7997;SDS011;4044;49.814;7.828;2023-06-14T04:07:44;6.73;;;6.10;;
7997;SDS011;4044;49.814;7.828;2023-06-14T04:10:13;6.60;;;6.00;;
7997;SDS011;4044;49.814;7.828;2023-06-14T04:12:40;6.83;;;6.33;;
7997;SDS011;4044;49.814;7.828;2023-06-14T04:15:06;7.23;;;6.63;;
7997;SDS011;4044;49.814;7.828;2023-06-14T04:17:33;7.00;;;6.33;;
7997;SDS011;4044;49.814;7.828;2023-06-14T04:19:59;6.90;;;6.23;;
7997;SDS011;4044;49.814;7.828;2023-06-14T04:22:25;7.80;;;7.07;;
7997;SDS011;4044;49.814;7.828;2023-06-14T04:24:53;7.43;;;6.83;;
7997;SDS011;4044;49.814;7.828;2023-06-14T04:27:21;6.70;;;6.10;;
7997;SDS011;4044;49.814;7.828;2023-06-14T04:29:50;7.60;;;6.90;;
7997;SDS011;4044;49.814;7.828;2023-06-14T04:32:18;8.07;;;7.37;;
7997;SDS011;4044;49.814;7.828;2023-06-14T04:34:43;7.77;;;7.10;;
7997;SDS011;4044;49.814;7.828;2023-06-14T04:37:09;8.23;;;7.50;;
7997;SDS011;4044;49.814;7.828;2023-06-14T04:39:34;7.40;;;6.80;;
7997;SDS011;4044;49.814;7.828;2023-06-14T04:42:00;7.50;;;6.90;;
7997;SDS011;4044;49.814;7.828;2023-06-14T04:44:28;7.57;;;6.80;;
7997;SDS011;4044;49.814;7.828;2023-06-14T04:46:57;7.53;;;6.93;;
7997;SDS011;4044;49.814;7.828;2023-06-14T04:49:23;7.77;;;6.97;;
7997;SDS011;4044;49.814;7.828;2023-06-14T04:51:49;7.57;;;6.93;;
7997;SDS011;4044;49.814;7.828;2023-06-14T04:54:22;7.40;;;6.63;;
7997;SDS011;4044;49.814;7.828;2023-06-14T04:56:50;7.57;;;6.87;;
7997;SDS011;4044;49.814;7.828;2023-06-14T04:59:16;7.23;;;6.67;;
7997;SDS011;4044;49.814;7.828;2023-06-14T05:01:42;7.70;;;7.10;;
7997;SDS011;4044;49.814;7.828;2023-06-14T05:04:12;7.60;;;6.87;;
7997;SDS011;4044;49.814;7.828;2023-06-14T05:06:38;7.73;;;7.03;;
7997;SDS011;4044;49.814;7.828;2023-06-14T05:09:04;7.90;;;7.13;;
7997;SDS011;4044;49.814;7.828;2023-06-14T05:11:29;8.20;;;7.50;;
7997;SDS011;4044;49.814;7.828;2023-06-14T05:13:55;7.43;;;6.73;;
7997;SDS011;4044;49.814;7.828;2023-06-14T05:16:23;8.53;;;7.27;;
7997;SDS011;4044;49.814;7.828;2023-06-14T05:18:50;8.53;;;7.47;;
7997;SDS011;4044;49.814;7.828;2023-06-14T05:21:17;7.03;;;6.33;;
7997;SDS011;4044;49.814;7.828;2023-06-14T05:23:43;7.33;;;6.77;;
7997;SDS011;4044;49.814;7.828;2023-06-14T05:26:10;7.73;;;6.93;;
7997;SDS011;4044;49.814;7.828;2023-06-14T05:28:35;9.87;;;7.20;;
7997;SDS011;4044;49.814;7.828;2023-06-14T05:31:01;8.13;;;7.43;;
7997;SDS011;4044;49.814;7.828;2023-06-14T05:33:27;7.60;;;7.00;;
7997;SDS011;4044;49.814;7.828;2023-06-14T05:35:52;7.70;;;6.97;;
7997;SDS011;4044;49.814;7.828;2023-06-14T05:38:18;8.30;;;7.50;;
7997;SDS011;4044;49.814;7.828;2023-06-14T05:40:43;8.77;;;7.13;;
7997;SDS011;4044;49.814;7.828;2023-06-14T05:43:10;9.57;;;6.93;;
7997;SDS011;4044;49.814;7.828;2023-06-14T05:45:35;10.03;;;6.80;;
7997;SDS011;4044;49.814;7.828;2023-06-14T05:48:01;7.10;;;6.27;;
7997;SDS011;4044;49.814;7.828;2023-06-14T05:50:26;6.80;;;6.20;;
7997;SDS011;4044;49.814;7.828;2023-06-14T05:52:53;10.93;;;6.87;;
7997;SDS011;4044;49.814;7.828;2023-06-14T05:55:18;7.53;;;6.67;;
7997;SDS011;4044;49.814;7.828;2023-06-14T05:57:44;8.43;;;6.60;;
7997;SDS011;4044;49.814;7.828;2023-06-14T06:00:10;7.37;;;6.10;;
7997;SDS011;4044;49.814;7.828;2023-06-14T06:02:39;7.00;;;6.40;;
7997;SDS011;4044;49.814;7.828;2023-06-14T06:05:06;7.43;;;6.73;;
7997;SDS011;4044;49.814;7.828;2023-06-14T06:07:31;8.60;;;5.80;;
7997;SDS011;4044;49.814;7.828;2023-06-14T06:09:57;7.13;;;6.60;;
7997;SDS011;4044;49.814;7.828;2023-06-14T06:12:22;8.73;;;6.27;;
7997;SDS011;4044;49.814;7.828;2023-06-14T06:14:48;8.10;;;5.90;;
7997;SDS011;4044;49.814;7.828;2023-06-14T06:17:13;6.77;;;6.17;;
7997;SDS011;4044;49.814;7.828;2023-06-14T06:19:39;6.97;;;6.27;;
7997;SDS011;4044;49.814;7.828;2023-06-14T06:22:04;5.93;;;5.43;;
7997;SDS011;4044;49.814;7.828;2023-06-14T06:24:31;6.07;;;5.20;;
7997;SDS011;4044;49.814;7.828;2023-06-14T06:26:57;5.60;;;5.10;;
7997;SDS011;4044;49.814;7.828;2023-06-14T06:29:22;5.53;;;5.03;;
7997;SDS011;4044;49.814;7.828;2023-06-14T06:31:48;5.63;;;4.95;;
7997;SDS011;4044;49.814;7.828;2023-06-14T06:34:13;6.82;;;5.22;;
7997;SDS011;4044;49.814;7.828;2023-06-14T06:36:39;7.10;;;5.10;;
7997;SDS011;4044;49.814;7.828;2023-06-14T06:39:04;5.50;;;4.70;;
7997;SDS011;4044;49.814;7.828;2023-06-14T06:41:34;5.70;;;5.15;;
7997;SDS011;4044;49.814;7.828;2023-06-14T06:44:05;5.85;;;4.82;;
7997;SDS011;4044;49.814;7.828;2023-06-14T06:46:31;5.75;;;4.63;;
7997;SDS011;4044;49.814;7.828;2023-06-14T06:48:57;5.63;;;5.13;;
7997;SDS011;4044;49.814;7.828;2023-06-14T06:51:22;6.03;;;4.65;;
7997;SDS011;4044;49.814;7.828;2023-06-14T06:53:54;5.88;;;5.18;;
7997;SDS011;4044;49.814;7.828;2023-06-14T06:56:20;6.05;;;4.75;;
7997;SDS011;4044;49.814;7.828;2023-06-14T06:58:48;9.23;;;4.95;;
7997;SDS011;4044;49.814;7.828;2023-06-14T07:01:14;5.20;;;4.70;;
7997;SDS011;4044;49.814;7.828;2023-06-14T07:03:40;6.35;;;5.00;;
7997;SDS011;4044;49.814;7.828;2023-06-14T07:06:06;6.57;;;4.20;;
7997;SDS011;4044;49.814;7.828;2023-06-14T07:08:31;5.88;;;3.95;;
7997;SDS011;4044;49.814;7.828;2023-06-14T07:10:57;8.55;;;4.22;;
7997;SDS011;4044;49.814;7.828;2023-06-14T07:13:23;4.55;;;3.88;;
7997;SDS011;4044;49.814;7.828;2023-06-14T07:15:48;4.25;;;3.83;;
7997;SDS011;4044;49.814;7.828;2023-06-14T07:18:14;4.90;;;3.50;;
7997;SDS011;4044;49.814;7.828;2023-06-14T07:20:39;4.80;;;3.70;;
7997;SDS011;4044;49.814;7.828;2023-06-14T07:23:05;4.97;;;3.45;;
7997;SDS011;4044;49.814;7.828;2023-06-14T07:25:31;4.38;;;3.88;;
7997;SDS011;4044;49.814;7.828;2023-06-14T07:27:56;3.90;;;3.50;;
7997;SDS011;4044;49.814;7.828;2023-06-14T07:30:22;7.38;;;3.72;;
7997;SDS011;4044;49.814;7.828;2023-06-14T07:32:51;6.07;;;3.22;;
7997;SDS011;4044;49.814;7.828;2023-06-14T07:35:17;3.25;;;2.97;;
7997;SDS011;4044;49.814;7.828;2023-06-14T07:37:43;6.95;;;3.40;;
7997;SDS011;4044;49.814;7.828;2023-06-14T07:40:08;6.55;;;3.78;;
7997;SDS011;4044;49.814;7.828;2023-06-14T07:42:35;4.85;;;3.60;;
7997;SDS011;4044;49.814;7.828;2023-06-14T07:45:01;8.45;;;3.40;;
7997;SDS011;4044;49.814;7.828;2023-06-14T07:47:28;5.28;;;3.40;;
7997;SDS011;4044;49.814;7.828;2023-06-14T07:49:53;5.25;;;3.40;;
7997;SDS011;4044;49.814;7.828;2023-06-14T07:52:18;5.13;;;3.53;;
7997;SDS011;4044;49.814;7.828;2023-06-14T07:54:45;5.82;;;3.30;;
7997;SDS011;4044;49.814;7.828;2023-06-14T07:57:10;3.67;;;3.38;;
7997;SDS011;4044;49.814;7.828;2023-06-14T07:59:36;5.90;;;3.20;;
7997;SDS011;4044;49.814;7.828;2023-06-14T08:02:01;3.38;;;2.83;;
7997;SDS011;4044;49.814;7.828;2023-06-14T08:04:27;5.20;;;3.53;;
7997;SDS011;4044;49.814;7.828;2023-06-14T08:06:52;4.75;;;3.42;;
7997;SDS011;4044;49.814;7.828;2023-06-14T08:09:18;5.03;;;3.40;;
7997;SDS011;4044;49.814;7.828;2023-06-14T08:11:44;5.55;;;3.13;;
7997;SDS011;4044;49.814;7.828;2023-06-14T08:14:10;6.68;;;3.40;;
7997;SDS011;4044;49.814;7.828;2023-06-14T08:16:36;4.78;;;3.55;;
7997;SDS011;4044;49.814;7.828;2023-06-14T08:19:02;3.55;;;3.25;;
7997;SDS011;4044;49.814;7.828;2023-06-14T08:21:27;5.22;;;3.70;;
7997;SDS011;4044;49.814;7.828;2023-06-14T08:23:54;4.95;;;3.15;;
7997;SDS011;4044;49.814;7.828;2023-06-14T08:26:22;4.22;;;3.38;;
7997;SDS011;4044;49.814;7.828;2023-06-14T08:28:48;3.67;;;3.03;;
7997;SDS011;4044;49.814;7.828;2023-06-14T08:31:13;4.63;;;3.28;;
7997;SDS011;4044;49.814;7.828;2023-06-14T08:33:39;3.58;;;2.88;;
7997;SDS011;4044;49.814;7.828;2023-06-14T08:36:08;3.65;;;2.95;;
7997;SDS011;4044;49.814;7.828;2023-06-14T08:38:33;3.92;;;3.25;;
7997;SDS011;4044;49.814;7.828;2023-06-14T08:40:59;3.88;;;2.72;;
7997;SDS011;4044;49.814;7.828;2023-06-14T08:43:27;3.78;;;2.25;;
7997;SDS011;4044;49.814;7.828;2023-06-14T08:45:53;2.70;;;2.50;;
7997;SDS011;4044;49.814;7.828;2023-06-14T08:48:26;2.90;;;2.70;;
7997;SDS011;4044;49.814;7.828;2023-06-14T08:50:52;4.32;;;2.72;;
7997;SDS011;4044;49.814;7.828;2023-06-14T08:53:26;3.08;;;2.67;;
7997;SDS011;4044;49.814;7.828;2023-06-14T08:55:53;3.45;;;2.40;;
7997;SDS011;4044;49.814;7.828;2023-06-14T08:58:20;3.28;;;2.38;;
7997;SDS011;4044;49.814;7.828;2023-06-14T09:00:49;2.78;;;2.58;;
7997;SDS011;4044;49.814;7.828;2023-06-14T09:03:17;5.25;;;2.50;;
7997;SDS011;4044;49.814;7.828;2023-06-14T09:05:45;2.40;;;2.20;;
7997;SDS011;4044;49.814;7.828;2023-06-14T09:08:12;2.17;;;1.98;;
7997;SDS011;4044;49.814;7.828;2023-06-14T09:10:37;3.08;;;2.22;;
7997;SDS011;4044;49.814;7.828;2023-06-14T09:13:05;3.75;;;2.40;;
7997;SDS011;4044;49.814;7.828;2023-06-14T09:15:31;5.20;;;2.88;;
7997;SDS011;4044;49.814;7.828;2023-06-14T09:17:57;2.40;;;2.20;;
7997;SDS011;4044;49.814;7.828;2023-06-14T09:20:23;3.88;;;2.20;;
7997;SDS011;4044;49.814;7.828;2023-06-14T09:22:50;3.67;;;2.50;;
7997;SDS011;4044;49.814;7.828;2023-06-14T09:25:15;5.78;;;2.85;;
7997;SDS011;4044;49.814;7.828;2023-06-14T09:27:41;4.13;;;2.35;;
7997;SDS011;4044;49.814;7.828;2023-06-14T09:30:08;3.65;;;2.30;;
7997;SDS011;4044;49.814;7.828;2023-06-14T09:32:38;2.92;;;2.30;;
7997;SDS011;4044;49.814;7.828;2023-06-14T09:35:08;2.50;;;2.30;;
7997;SDS011;4044;49.814;7.828;2023-06-14T09:37:34;3.13;;;2.20;;
7997;SDS011;4044;49.814;7.828;2023-06-14T09:40:00;2.58;;;2.38;;
7997;SDS011;4044;49.814;7.828;2023-06-14T09:42:26;2.70;;;2.47;;
7997;SDS011;4044;49.814;7.828;2023-06-14T09:44:53;3.47;;;2.42;;
7997;SDS011;4044;49.814;7.828;2023-06-14T09:47:20;3.25;;;2.58;;
7997;SDS011;4044;49.814;7.828;2023-06-14T09:49:47;3.30;;;2.30;;
7997;SDS011;4044;49.814;7.828;2023-06-14T09:52:17;2.75;;;2.55;;
7997;SDS011;4044;49.814;7.828;2023-06-14T09:54:44;2.92;;;2.47;;
7997;SDS011;4044;49.814;7.828;2023-06-14T09:57:14;3.53;;;2.30;;
7997;SDS011;4044;49.814;7.828;2023-06-14T09:59:46;2.53;;;2.42;;
7997;SDS011;4044;49.814;7.828;2023-06-14T10:07:41;3.78;;;2.45;;
7997;SDS011;4044;49.814;7.828;2023-06-14T10:10:13;2.45;;;2.35;;
7997;SDS011;4044;49.814;7.828;2023-06-14T10:12:39;3.35;;;2.50;;
7997;SDS011;4044;49.814;7.828;2023-06-14T10:15:05;4.70;;;2.67;;
7997;SDS011;4044;49.814;7.828;2023-06-14T10:17:41;3.90;;;2.97;;
7997;SDS011;4044;49.814;7.828;2023-06-14T10:22:59;4.22;;;2.80;;
7997;SDS011;4044;49.814;7.828;2023-06-14T10:25:32;5.63;;;2.60;;
7997;SDS011;4044;49.814;7.828;2023-06-14T10:33:32;2.60;;;2.40;;
7997;SDS011;4044;49.814;7.828;2023-06-14T10:36:41;4.22;;;2.20;;
7997;SDS011;4044;49.814;7.828;2023-06-14T10:38:59;2.30;;;2.20;;
7997;SDS011;4044;49.814;7.828;2023-06-14T10:41:28;2.65;;;2.45;;
7997;SDS011;4044;49.814;7.828;2023-06-14T10:47:00;3.03;;;2.28;;
7997;SDS011;4044;49.814;7.828;2023-06-14T10:50:03;2.95;;;2.03;;
7997;SDS011;4044;49.814;7.828;2023-06-14T10:52:24;3.08;;;2.55;;
7997;SDS011;4044;49.814;7.828;2023-06-14T10:54:59;3.13;;;2.42;;
7997;SDS011;4044;49.814;7.828;2023-06-14T10:57:26;2.55;;;2.38;;
7997;SDS011;4044;49.814;7.828;2023-06-14T10:59:52;2.38;;;2.28;;
7997;SDS011;4044;49.814;7.828;2023-06-14T11:05:03;2.10;;;2.00;;
7997;SDS011;4044;49.814;7.828;2023-06-14T11:10:37;4.43;;;2.33;;
7997;SDS011;4044;49.814;7.828;2023-06-14T11:13:04;2.53;;;2.30;;
7997;SDS011;4044;49.814;7.828;2023-06-14T11:15:31;2.25;;;2.15;;
7997;SDS011;4044;49.814;7.828;2023-06-14T11:17:58;2.63;;;2.40;;
7997;SDS011;4044;49.814;7.828;2023-06-14T11:20:26;2.35;;;2.10;;
7997;SDS011;4044;49.814;7.828;2023-06-14T11:22:52;9.90;;;2.45;;
7997;SDS011;4044;49.814;7.828;2023-06-14T11:25:19;2.15;;;2.03;;
7997;SDS011;4044;49.814;7.828;2023-06-14T11:27:44;2.10;;;2.00;;
7997;SDS011;4044;49.814;7.828;2023-06-14T11:30:10;5.45;;;2.22;;
7997;SDS011;4044;49.814;7.828;2023-06-14T11:32:38;3.28;;;1.90;;
7997;SDS011;4044;49.814;7.828;2023-06-14T11:35:04;3.95;;;2.00;;
7997;SDS011;4044;49.814;7.828;2023-06-14T11:37:31;2.40;;;2.20;;
7997;SDS011;4044;49.814;7.828;2023-06-14T11:40:00;2.42;;;2.22;;
7997;SDS011;4044;49.814;7.828;2023-06-14T11:42:33;1.92;;;1.83;;
7997;SDS011;4044;49.814;7.828;2023-06-14T11:44:58;2.47;;;2.28;;
7997;SDS011;4044;49.814;7.828;2023-06-14T11:47:24;6.50;;;2.47;;
7997;SDS011;4044;49.814;7.828;2023-06-14T11:49:57;2.92;;;2.33;;
7997;SDS011;4044;49.814;7.828;2023-06-14T11:52:23;2.25;;;2.05;;
7997;SDS011;4044;49.814;7.828;2023-06-14T11:54:49;3.53;;;2.20;;
7997;SDS011;4044;49.814;7.828;2023-06-14T11:57:15;2.60;;;2.25;;
7997;SDS011;4044;49.814;7.828;2023-06-14T11:59:43;2.17;;;2.00;;
7997;SDS011;4044;49.814;7.828;2023-06-14T12:02:09;3.80;;;2.17;;
7997;SDS011;4044;49.814;7.828;2023-06-14T12:04:40;2.58;;;2.38;;
7997;SDS011;4044;49.814;7.828;2023-06-14T12:07:09;2.15;;;2.00;;
7997;SDS011;4044;49.814;7.828;2023-06-14T12:09:42;2.42;;;2.00;;
7997;SDS011;4044;49.814;7.828;2023-06-14T12:12:34;2.97;;;2.20;;
7997;SDS011;4044;49.814;7.828;2023-06-14T12:15:02;4.10;;;2.33;;
7997;SDS011;4044;49.814;7.828;2023-06-14T12:17:31;2.25;;;2.15;;
7997;SDS011;4044;49.814;7.828;2023-06-14T12:19:58;3.38;;;2.03;;
7997;SDS011;4044;49.814;7.828;2023-06-14T12:22:23;2.30;;;2.10;;
7997;SDS011;4044;49.814;7.828;2023-06-14T12:24:49;2.70;;;2.45;;
7997;SDS011;4044;49.814;7.828;2023-06-14T12:27:15;2.40;;;2.15;;
7997;SDS011;4044;49.814;7.828;2023-06-14T12:29:43;3.63;;;2.22;;
7997;SDS011;4044;49.814;7.828;2023-06-14T12:32:09;2.40;;;2.20;;
7997;SDS011;4044;49.814;7.828;2023-06-14T12:34:35;2.35;;;2.00;;
7997;SDS011;4044;49.814;7.828;2023-06-14T12:37:01;2.30;;;2.10;;
7997;SDS011;4044;49.814;7.828;2023-06-14T12:39:29;2.38;;;2.25;;
7997;SDS011;4044;49.814;7.828;2023-06-14T12:41:56;2.20;;;2.10;;
7997;SDS011;4044;49.814;7.828;2023-06-14T12:44:22;2.25;;;2.05;;
7997;SDS011;4044;49.814;7.828;2023-06-14T12:46:47;2.92;;;2.20;;
7997;SDS011;4044;49.814;7.828;2023-06-14T12:49:13;2.30;;;2.20;;
7997;SDS011;4044;49.814;7.828;2023-06-14T12:51:39;1.98;;;1.88;;
7997;SDS011;4044;49.814;7.828;2023-06-14T12:54:05;3.83;;;2.30;;
7997;SDS011;4044;49.814;7.828;2023-06-14T12:56:31;2.17;;;1.92;;
7997;SDS011;4044;49.814;7.828;2023-06-14T12:58:57;2.47;;;1.98;;
7997;SDS011;4044;49.814;7.828;2023-06-14T13:01:24;2.33;;;2.20;;
7997;SDS011;4044;49.814;7.828;2023-06-14T13:03:49;2.20;;;2.10;;
7997;SDS011;4044;49.814;7.828;2023-06-14T13:06:16;5.85;;;2.47;;
7997;SDS011;4044;49.814;7.828;2023-06-14T13:08:42;3.30;;;2.35;;
7997;SDS011;4044;49.814;7.828;2023-06-14T13:11:08;2.33;;;2.20;;
7997;SDS011;4044;49.814;7.828;2023-06-14T13:13:33;2.20;;;2.10;;
7997;SDS011;4044;49.814;7.828;2023-06-14T13:15:59;2.97;;;2.03;;
7997;SDS011;4044;49.814;7.828;2023-06-14T13:18:25;2.05;;;1.95;;
7997;SDS011;4044;49.814;7.828;2023-06-14T13:20:51;2.40;;;2.20;;
7997;SDS011;4044;49.814;7.828;2023-06-14T13:23:16;3.75;;;2.20;;
7997;SDS011;4044;49.814;7.828;2023-06-14T13:25:42;3.95;;;2.33;;
7997;SDS011;4044;49.814;7.828;2023-06-14T13:28:07;2.20;;;2.10;;
7997;SDS011;4044;49.814;7.828;2023-06-14T13:30:33;2.42;;;2.33;;
7997;SDS011;4044;49.814;7.828;2023-06-14T13:32:59;2.20;;;2.13;;
7997;SDS011;4044;49.814;7.828;2023-06-14T13:35:25;2.00;;;1.90;;
7997;SDS011;4044;49.814;7.828;2023-06-14T13:37:50;2.42;;;2.22;;
7997;SDS011;4044;49.814;7.828;2023-06-14T13:40:16;2.45;;;2.20;;
7997;SDS011;4044;49.814;7.828;2023-06-14T13:42:42;2.15;;;2.05;;
7997;SDS011;4044;49.814;7.828;2023-06-14T13:45:08;3.42;;;2.60;;
7997;SDS011;4044;49.814;7.828;2023-06-14T13:47:35;3.08;;;2.50;;
7997;SDS011;4044;49.814;7.828;2023-06-14T13:50:00;2.40;;;2.30;;
7997;SDS011;4044;49.814;7.828;2023-06-14T13:52:27;2.80;;;2.20;;
7997;SDS011;4044;49.814;7.828;2023-06-14T13:54:53;2.50;;;2.40;;
7997;SDS011;4044;49.814;7.828;2023-06-14T13:57:19;2.38;;;2.17;;
7997;SDS011;4044;49.814;7.828;2023-06-14T13:59:45;2.70;;;2.30;;
7997;SDS011;4044;49.814;7.828;2023-06-14T14:02:10;3.67;;;2.30;;
7997;SDS011;4044;49.814;7.828;2023-06-14T14:04:36;2.20;;;2.10;;
7997;SDS011;4044;49.814;7.828;2023-06-14T14:07:05;4.60;;;2.40;;
7997;SDS011;4044;49.814;7.828;2023-06-14T14:09:32;2.30;;;2.20;;
7997;SDS011;4044;49.814;7.828;2023-06-14T14:11:58;2.60;;;2.40;;
7997;SDS011;4044;49.814;7.828;2023-06-14T14:14:24;3.03;;;2.83;;
7997;SDS011;4044;49.814;7.828;2023-06-14T14:16:49;2.88;;;2.67;;
7997;SDS011;4044;49.814;7.828;2023-06-14T14:19:19;3.03;;;2.80;;
7997;SDS011;4044;49.814;7.828;2023-06-14T14:21:46;2.78;;;2.58;;
7997;SDS011;4044;49.814;7.828;2023-06-14T14:24:11;3.10;;;2.90;;
7997;SDS011;4044;49.814;7.828;2023-06-14T14:26:37;2.72;;;2.53;;
7997;SDS011;4044;49.814;7.828;2023-06-14T14:29:03;2.65;;;2.55;;
7997;SDS011;4044;49.814;7.828;2023-06-14T14:31:28;2.90;;;2.55;;
7997;SDS011;4044;49.814;7.828;2023-06-14T14:33:55;2.88;;;2.60;;
7997;SDS011;4044;49.814;7.828;2023-06-14T14:36:20;2.90;;;2.70;;
7997;SDS011;4044;49.814;7.828;2023-06-14T14:38:46;4.82;;;2.78;;
7997;SDS011;4044;49.814;7.828;2023-06-14T14:41:12;3.13;;;2.70;;
7997;SDS011;4044;49.814;7.828;2023-06-14T14:43:38;3.78;;;2.70;;
7997;SDS011;4044;49.814;7.828;2023-06-14T14:46:04;3.97;;;2.70;;
7997;SDS011;4044;49.814;7.828;2023-06-14T14:48:29;3.08;;;2.88;;
7997;SDS011;4044;49.814;7.828;2023-06-14T14:50:55;3.20;;;2.90;;
7997;SDS011;4044;49.814;7.828;2023-06-14T14:53:21;2.58;;;2.47;;
7997;SDS011;4044;49.814;7.828;2023-06-14T14:55:46;2.67;;;2.50;;
7997;SDS011;4044;49.814;7.828;2023-06-14T14:58:13;2.92;;;2.63;;
7997;SDS011;4044;49.814;7.828;2023-06-14T15:00:42;4.47;;;2.67;;
7997;SDS011;4044;49.814;7.828;2023-06-14T15:03:07;3.00;;;2.80;;
7997;SDS011;4044;49.814;7.828;2023-06-14T15:05:33;2.50;;;2.40;;
7997;SDS011;4044;49.814;7.828;2023-06-14T15:07:58;2.80;;;2.60;;
7997;SDS011;4044;49.814;7.828;2023-06-14T15:10:24;4.55;;;2.75;;
7997;SDS011;4044;49.814;7.828;2023-06-14T15:12:49;2.90;;;2.65;;
7997;SDS011;4044;49.814;7.828;2023-06-14T15:15:15;2.60;;;2.40;;
7997;SDS011;4044;49.814;7.828;2023-06-14T15:17:40;2.83;;;2.70;;
7997;SDS011;4044;49.814;7.828;2023-06-14T15:20:06;2.63;;;2.42;;
7997;SDS011;4044;49.814;7.828;2023-06-14T15:22:32;5.40;;;2.90;;
7997;SDS011;4044;49.814;7.828;2023-06-14T15:24:58;3.35;;;2.50;;
7997;SDS011;4044;49.814;7.828;2023-06-14T15:27:23;2.80;;;2.58;;
7997;SDS011;4044;49.814;7.828;2023-06-14T15:29:49;4.25;;;2.63;;
7997;SDS011;4044;49.814;7.828;2023-06-14T15:32:15;2.80;;;2.60;;
7997;SDS011;4044;49.814;7.828;2023-06-14T15:34:40;3.20;;;2.95;;
7997;SDS011;4044;49.814;7.828;2023-06-14T15:37:06;3.33;;;2.67;;